createdAt,value
2023-03-02T00:03:36.129Z,27.26
2023-03-02T00:08:42.023Z,27.05
2023-03-02T00:13:47.252Z,27.85
2023-03-02T00:18:52.264Z,27.79
2023-03-02T00:23:57.475Z,27.39
2023-03-02T00:29:02.893Z,27.45
2023-03-02T00:34:08.268Z,27.32
2023-03-02T00:39:13.508Z,27.48
2023-03-02T00:44:21.276Z,26.89
2023-03-02T00:49:26.848Z,27.55
2023-03-02T00:54:32.365Z,27.23
2023-03-02T00:59:39.910Z,26.90
2023-03-02T01:04:55.324Z,26.79
2023-03-02T01:10:01.013Z,26.76
2023-03-02T01:15:06.126Z,25.98
2023-03-02T01:20:13.428Z,26.06
2023-03-02T01:25:20.797Z,25.95
2023-03-02T01:30:26.122Z,25.77
2023-03-02T01:35:31.442Z,26.07
2023-03-02T01:40:36.833Z,25.59
2023-03-02T01:45:55.603Z,25.74
2023-03-02T01:51:16.158Z,25.41
2023-03-02T01:56:30.392Z,25.87
2023-03-02T02:01:39.579Z,25.55
2023-03-02T02:06:53.044Z,25.68
2023-03-02T02:11:58.810Z,25.47
2023-03-02T02:17:05.430Z,25.22
2023-03-02T02:22:13.617Z,25.34
2023-03-02T02:27:19.952Z,25.46
2023-03-02T02:32:28.719Z,25.32
2023-03-02T02:37:56.001Z,24.47
2023-03-02T02:43:01.624Z,24.51
2023-03-02T02:48:07.868Z,23.46
2023-03-02T02:53:21.285Z,25.09
2023-03-02T02:58:51.024Z,24.96
2023-03-02T03:04:03.994Z,25.62
2023-03-02T03:09:12.295Z,25.17
2023-03-02T03:14:52.863Z,23.19
2023-03-02T03:20:09.432Z,24.77
2023-03-02T03:25:21.119Z,23.52
2023-03-02T03:30:27.560Z,24.41
2023-03-02T03:35:33.464Z,24.52
2023-03-02T03:40:38.847Z,22.51
2023-03-02T03:45:44.433Z,23.99
2023-03-02T03:50:50.074Z,23.42
2023-03-02T03:55:58.826Z,24.72
2023-03-02T04:01:05.041Z,23.25
2023-03-02T04:06:20.199Z,24.68
2023-03-02T04:11:26.351Z,24.14
2023-03-02T04:16:33.017Z,24.11
2023-03-02T04:21:42.024Z,21.59
2023-03-02T04:26:48.040Z,20.95
2023-03-02T04:31:55.294Z,23.68
2023-03-02T04:37:03.323Z,20.55
2023-03-02T04:42:08.124Z,23.77
2023-03-02T04:47:13.716Z,23.03
2023-03-02T04:52:19.116Z,24.05
2023-03-02T04:57:24.424Z,24.86
2023-03-02T05:02:29.969Z,19.76
2023-03-02T05:07:35.712Z,23.08
2023-03-02T05:13:01.128Z,21.61
2023-03-02T05:46:39.508Z,20.92
2023-03-02T05:51:47.164Z,22.77
2023-03-02T05:56:52.396Z,22.26
2023-03-02T06:02:00.331Z,20.39
2023-03-02T06:07:05.642Z,23.51
2023-03-02T06:12:11.318Z,23.27
2023-03-02T06:17:16.027Z,23.12
2023-03-02T06:22:21.904Z,21.30
2023-03-02T06:27:26.771Z,22.58
2023-03-02T06:32:35.404Z,23.00
2023-03-02T06:37:42.905Z,23.13
2023-03-02T06:42:48.941Z,21.33
2023-03-02T06:47:53.795Z,22.97
2023-03-02T06:52:58.789Z,21.58
2023-03-02T06:58:03.572Z,22.54
2023-03-02T07:03:08.268Z,22.42
2023-03-02T07:08:13.619Z,21.62
2023-03-02T07:13:18.295Z,20.59
2023-03-02T07:18:24.109Z,22.61
2023-03-02T07:23:29.140Z,22.49
2023-03-02T07:28:34.066Z,23.08
2023-03-02T07:33:38.909Z,22.44
2023-03-02T07:38:43.676Z,22.02
2023-03-02T07:43:48.395Z,22.54
2023-03-02T07:48:53.348Z,21.68
2023-03-02T07:53:58.071Z,22.94
2023-03-02T07:59:02.794Z,22.35
2023-03-02T08:04:07.603Z,22.54
2023-03-02T08:09:12.363Z,19.83
2023-03-02T08:14:17.299Z,21.54
2023-03-02T08:19:22.974Z,22.32
2023-03-02T08:24:28.008Z,21.87
2023-03-02T08:29:32.701Z,21.85
2023-03-02T08:34:37.836Z,22.35
2023-03-02T08:39:43.280Z,22.23
2023-03-02T08:44:47.982Z,20.83
2023-03-02T08:49:52.916Z,21.39
2023-03-02T08:54:57.648Z,21.54
2023-03-02T09:00:02.305Z,21.95
2023-03-02T09:05:07.406Z,22.86
2023-03-02T09:10:15.607Z,22.49
2023-03-02T09:15:20.281Z,22.52
2023-03-02T09:20:25.261Z,22.42
2023-03-02T09:25:32.816Z,22.85
2023-03-02T09:30:37.423Z,22.96
2023-03-02T09:35:42.116Z,23.28
2023-03-02T09:41:11.158Z,23.39
2023-03-02T09:46:30.435Z,22.95
2023-03-02T09:51:47.348Z,23.32
2023-03-02T09:57:01.017Z,22.95
2023-03-02T10:02:27.753Z,23.27
2023-03-02T10:07:35.398Z,23.37
2023-03-02T10:12:52.020Z,23.02
2023-03-02T10:18:22.425Z,23.37
2023-03-02T10:23:50.282Z,23.51
2023-03-02T10:29:07.759Z,23.86
2023-03-02T10:34:16.322Z,23.40
2023-03-02T10:39:21.138Z,23.73
2023-03-02T10:44:35.283Z,23.62
2023-03-02T10:49:45.115Z,23.57
2023-03-02T10:54:50.373Z,23.77
2023-03-02T10:59:55.002Z,24.06
2023-03-02T11:05:15.579Z,24.11
2023-03-02T11:10:25.476Z,24.31
2023-03-02T11:15:48.790Z,24.29
2023-03-02T11:20:58.788Z,24.25
2023-03-02T11:26:41.495Z,24.59
2023-03-02T11:31:54.734Z,24.26
2023-03-02T11:37:15.488Z,24.29
2023-03-02T11:42:42.552Z,24.25
2023-03-02T11:48:04.140Z,24.20
2023-03-02T11:53:20.529Z,24.32
2023-03-02T11:58:28.787Z,24.19
2023-03-02T12:03:46.104Z,24.72
2023-03-02T12:08:56.014Z,24.75
2023-03-02T12:14:07.400Z,25.03
2023-03-02T12:19:26.067Z,25.02
2023-03-02T12:24:34.566Z,25.52
2023-03-02T12:29:52.030Z,25.51
2023-03-02T12:34:58.948Z,25.95
2023-03-02T12:40:41.725Z,25.59
2023-03-02T12:46:24.562Z,26.02
2023-03-02T12:51:35.657Z,26.22
2023-03-02T12:56:42.090Z,26.36
2023-03-02T13:01:47.213Z,25.92
2023-03-02T13:06:53.217Z,26.21
2023-03-02T13:11:59.434Z,25.83
2023-03-02T13:17:06.117Z,25.64
2023-03-02T13:22:13.624Z,25.78
2023-03-02T13:27:22.150Z,25.97
2023-03-02T13:33:03.786Z,25.50
2023-03-02T13:38:19.091Z,26.19
2023-03-02T13:43:33.397Z,26.20
2023-03-02T13:48:38.667Z,26.38
2023-03-02T13:54:00.110Z,26.47
2023-03-02T13:59:07.129Z,26.12
2023-03-02T14:04:20.044Z,26.43
2023-03-02T14:09:27.187Z,26.20
2023-03-02T14:14:39.002Z,26.62
2023-03-02T14:19:44.844Z,26.38
2023-03-02T14:24:50.621Z,26.85
2023-03-02T14:29:57.479Z,26.32
2023-03-02T14:35:03.092Z,26.74
2023-03-02T14:40:16.500Z,26.42
2023-03-02T14:45:23.957Z,26.80
2023-03-02T14:50:29.123Z,27.49
2023-03-02T14:55:34.698Z,27.48
2023-03-02T15:00:41.248Z,27.82
2023-03-02T15:05:59.018Z,27.76
2023-03-02T15:11:06.008Z,27.85
2023-03-02T15:16:14.876Z,27.46
2023-03-02T15:21:25.652Z,27.34
2023-03-02T15:26:30.439Z,27.98
2023-03-02T15:31:35.368Z,28.09
2023-03-02T15:36:41.663Z,28.39
2023-03-02T15:41:46.704Z,27.40
2023-03-02T15:46:52.930Z,27.48
2023-03-02T15:51:58.795Z,27.86
2023-03-02T15:57:05.021Z,28.14
2023-03-02T16:02:11.037Z,28.22
2023-03-02T16:07:15.580Z,28.32
2023-03-02T16:12:24.596Z,27.75
2023-03-02T16:17:29.581Z,28.00
2023-03-02T16:22:34.196Z,27.76
2023-03-02T16:27:38.971Z,28.04
2023-03-02T16:32:43.957Z,27.83
2023-03-02T16:37:48.677Z,28.05
2023-03-02T16:42:53.668Z,29.19
2023-03-02T16:47:58.208Z,28.35
2023-03-02T16:53:03.046Z,28.73
2023-03-02T16:58:07.680Z,28.53
2023-03-02T17:03:13.300Z,28.57
2023-03-02T17:08:18.691Z,28.08
2023-03-02T17:13:23.423Z,28.76
2023-03-02T17:18:29.579Z,28.96
2023-03-02T17:23:34.731Z,28.81
2023-03-02T17:28:40.421Z,28.42
2023-03-02T17:33:44.998Z,28.98
2023-03-02T17:38:49.733Z,29.09
2023-03-02T17:43:54.403Z,29.09
2023-03-02T17:49:02.072Z,29.60
2023-03-02T17:54:07.086Z,30.36
2023-03-02T17:59:13.633Z,29.33
2023-03-02T18:04:18.484Z,29.09
2023-03-02T18:09:23.611Z,29.22
2023-03-02T18:14:29.661Z,29.56
2023-03-02T18:19:34.212Z,29.62
2023-03-02T18:24:38.859Z,29.66
2023-03-02T18:29:43.619Z,29.13
2023-03-02T18:34:49.301Z,28.78
2023-03-02T18:39:54.029Z,29.51
2023-03-02T18:44:58.861Z,29.58
2023-03-02T18:50:04.289Z,29.69
2023-03-02T18:55:10.157Z,30.17
2023-03-02T19:00:21.261Z,29.97
2023-03-02T19:05:28.075Z,30.30
2023-03-02T19:10:32.853Z,31.56
2023-03-02T19:15:38.345Z,30.19
2023-03-02T19:20:42.989Z,31.10
2023-03-02T19:25:47.973Z,30.36
2023-03-02T19:30:53.182Z,30.26
2023-03-02T19:35:57.778Z,30.14
2023-03-02T19:41:03.220Z,30.52
2023-03-02T19:46:08.671Z,29.51
2023-03-02T19:51:15.645Z,30.52
2023-03-02T19:56:22.030Z,29.92
2023-03-02T20:01:27.676Z,31.04
2023-03-02T20:06:35.363Z,30.55
2023-03-02T20:11:40.168Z,30.84
2023-03-02T20:16:46.036Z,31.43
2023-03-02T20:21:52.104Z,31.80
2023-03-02T20:26:56.653Z,31.89
2023-03-02T20:32:02.484Z,32.04
2023-03-02T20:37:08.399Z,31.74
2023-03-02T20:42:14.347Z,31.25
2023-03-02T20:47:18.378Z,32.45
2023-03-02T20:52:24.126Z,32.63
2023-03-02T20:57:28.983Z,33.34
2023-03-02T21:02:33.699Z,33.01
2023-03-02T21:07:38.820Z,32.72
2023-03-02T21:12:44.072Z,32.85
2023-03-02T21:17:49.412Z,32.81
2023-03-02T21:22:54.059Z,32.98
2023-03-02T21:28:00.936Z,34.08
2023-03-02T21:33:05.993Z,33.37
2023-03-02T21:38:10.788Z,33.46
2023-03-02T21:43:16.897Z,32.97
2023-03-02T21:48:23.015Z,33.33
2023-03-02T21:53:28.873Z,33.16
2023-03-02T21:58:33.632Z,33.00
2023-03-02T22:03:40.040Z,32.99
2023-03-02T22:08:44.688Z,32.99
2023-03-02T22:13:51.216Z,33.65
2023-03-02T22:18:58.814Z,33.47
2023-03-02T22:24:14.004Z,33.65
2023-03-02T22:29:30.939Z,32.78
2023-03-02T22:34:38.829Z,34.15
2023-03-02T22:39:43.523Z,33.91
2023-03-02T22:45:15.024Z,34.55
2023-03-02T22:50:32.699Z,33.40
2023-03-02T22:55:44.760Z,34.12
2023-03-02T23:00:50.160Z,34.88
2023-03-02T23:05:55.717Z,34.91
2023-03-02T23:11:01.143Z,34.93
2023-03-02T23:16:21.561Z,33.97
2023-03-02T23:21:37.449Z,33.97
2023-03-02T23:26:43.892Z,34.88
2023-03-02T23:31:49.196Z,33.84
2023-03-02T23:36:53.899Z,33.96
2023-03-02T23:41:59.477Z,33.92
2023-03-02T23:47:04.619Z,33.00
2023-03-02T23:52:09.196Z,33.70
2023-03-02T23:57:15.792Z,33.67
